createdAt,value
2018-08-10T00:00:05.669Z,23.50
2018-08-10T00:02:33.563Z,22.30
2018-08-10T00:05:01.472Z,24.57
2018-08-10T00:07:29.346Z,25.93
2018-08-10T00:09:57.259Z,22.87
2018-08-10T00:12:25.313Z,21.43
2018-08-10T00:14:53.170Z,21.07
2018-08-10T00:17:21.039Z,20.37
2018-08-10T00:19:48.920Z,22.47
2018-08-10T00:22:16.820Z,21.10
2018-08-10T00:24:44.899Z,18.10
2018-08-10T00:27:13.226Z,16.97
2018-08-10T00:29:41.179Z,15.77
2018-08-10T00:32:09.090Z,18.77
2018-08-10T00:34:36.987Z,21.07
2018-08-10T00:37:04.939Z,17.47
2018-08-10T00:39:32.849Z,18.37
2018-08-10T00:42:00.683Z,23.67
2018-08-10T00:44:28.629Z,19.53
2018-08-10T00:46:56.445Z,24.50
2018-08-10T00:49:24.403Z,15.90
2018-08-10T00:51:52.219Z,19.63
2018-08-10T00:54:20.134Z,20.40
2018-08-10T00:56:47.961Z,19.73
2018-08-10T00:59:15.891Z,20.80
2018-08-10T01:01:43.950Z,15.63
2018-08-10T01:04:11.863Z,14.60
2018-08-10T01:06:39.899Z,21.80
2018-08-10T01:09:08.699Z,19.03
2018-08-10T01:11:36.610Z,17.17
2018-08-10T01:14:04.641Z,16.53
2018-08-10T01:16:32.575Z,27.03
2018-08-10T01:19:00.489Z,22.20
2018-08-10T01:21:28.402Z,18.60
2018-08-10T01:23:56.298Z,19.37
2018-08-10T01:26:24.174Z,17.73
2018-08-10T01:28:52.236Z,18.87
2018-08-10T01:31:20.159Z,18.27
2018-08-10T01:33:48.101Z,15.20
2018-08-10T01:36:15.934Z,15.23
2018-08-10T01:38:43.805Z,13.50
2018-08-10T01:41:11.720Z,14.43
2018-08-10T01:43:39.643Z,14.77
2018-08-10T01:46:07.522Z,14.23
2018-08-10T01:48:35.422Z,21.63
2018-08-10T01:51:03.257Z,20.50
2018-08-10T01:53:31.144Z,11.40
2018-08-10T01:55:59.040Z,13.40
2018-08-10T01:58:26.903Z,15.83
2018-08-10T02:00:54.781Z,14.50
2018-08-10T02:03:22.794Z,14.23
2018-08-10T02:05:50.698Z,16.47
2018-08-10T02:08:18.642Z,15.43
2018-08-10T02:10:46.584Z,17.17
2018-08-10T02:13:14.426Z,19.17
2018-08-10T02:15:42.315Z,13.77
2018-08-10T02:18:10.187Z,13.90
2018-08-10T02:20:38.065Z,16.17
2018-08-10T02:23:05.958Z,15.57
2018-08-10T02:25:33.816Z,14.60
2018-08-10T02:28:01.702Z,11.83
2018-08-10T02:30:29.612Z,12.63
2018-08-10T02:32:58.172Z,13.60
2018-08-10T02:35:26.070Z,14.20
2018-08-10T02:37:54.076Z,12.33
2018-08-10T02:40:22.940Z,13.13
2018-08-10T02:42:51.497Z,13.63
2018-08-10T02:45:20.415Z,11.00
2018-08-10T02:47:48.885Z,17.07
2018-08-10T02:50:16.743Z,14.50
2018-08-10T02:52:44.936Z,17.47
2018-08-10T02:55:13.138Z,13.00
2018-08-10T02:57:41.452Z,15.70
2018-08-10T03:00:10.822Z,11.63
2018-08-10T03:02:38.800Z,8.83
2018-08-10T03:05:07.033Z,7.93
2018-08-10T03:07:34.953Z,8.67
2018-08-10T03:10:02.828Z,10.97
2018-08-10T03:12:30.730Z,11.63
2018-08-10T03:14:58.588Z,7.10
2018-08-10T03:17:26.599Z,11.27
2018-08-10T03:19:54.493Z,8.60
2018-08-10T03:22:22.316Z,8.13
2018-08-10T03:24:50.163Z,7.50
2018-08-10T03:27:18.047Z,11.40
2018-08-10T03:29:45.958Z,7.87
2018-08-10T03:32:13.925Z,9.43
2018-08-10T03:34:41.836Z,10.40
2018-08-10T03:37:09.732Z,10.25
2018-08-10T03:39:37.629Z,8.60
2018-08-10T03:42:05.550Z,7.80
2018-08-10T03:44:33.428Z,9.70
2018-08-10T03:47:01.357Z,6.10
2018-08-10T03:49:29.190Z,8.23
2018-08-10T03:51:57.035Z,7.23
2018-08-10T03:54:24.921Z,5.27
2018-08-10T03:56:52.774Z,7.53
2018-08-10T03:59:20.584Z,8.23
2018-08-10T04:01:48.470Z,6.87
2018-08-10T04:04:16.318Z,7.17
2018-08-10T04:06:44.180Z,8.50
2018-08-10T04:09:12.666Z,7.63
2018-08-10T04:11:41.159Z,10.97
2018-08-10T04:14:09.167Z,8.07
2018-08-10T04:16:37.132Z,7.30
2018-08-10T04:19:05.211Z,7.00
2018-08-10T04:21:33.053Z,9.40
2018-08-10T04:24:00.900Z,11.53
2018-08-10T04:26:28.838Z,7.63
2018-08-10T04:28:56.718Z,9.87
2018-08-10T04:31:24.645Z,7.93
2018-08-10T04:33:52.549Z,7.13
2018-08-10T04:36:20.506Z,6.50
2018-08-10T04:38:48.384Z,9.27
2018-08-10T04:41:16.260Z,8.63
2018-08-10T04:43:44.338Z,5.13
2018-08-10T04:46:12.352Z,8.00
2018-08-10T04:48:40.279Z,7.00
2018-08-10T04:51:08.139Z,10.20
2018-08-10T04:53:36.048Z,5.20
2018-08-10T04:56:04.084Z,4.50
2018-08-10T04:58:32.077Z,4.50
2018-08-10T05:00:59.901Z,5.20
2018-08-10T05:03:27.780Z,4.95
2018-08-10T05:05:55.640Z,4.80
2018-08-10T05:08:23.497Z,5.30
2018-08-10T05:10:51.373Z,7.20
2018-08-10T05:13:19.241Z,4.00
2018-08-10T05:15:47.176Z,4.00
2018-08-10T05:18:15.001Z,4.77
2018-08-10T05:20:42.954Z,4.37
2018-08-10T05:23:10.823Z,4.03
2018-08-10T05:25:38.782Z,6.43
2018-08-10T05:28:06.915Z,7.07
2018-08-10T05:31:10.975Z,6.10
2018-08-10T05:33:38.825Z,5.53
2018-08-10T05:36:06.838Z,5.77
2018-08-10T05:38:34.678Z,2.87
2018-08-10T05:41:02.550Z,5.27
2018-08-10T05:43:30.430Z,3.10
2018-08-10T05:45:58.343Z,5.87
2018-08-10T05:48:26.267Z,3.13
2018-08-10T05:50:54.151Z,5.50
2018-08-10T05:53:22.079Z,3.80
2018-08-10T05:55:49.940Z,4.30
2018-08-10T05:58:17.808Z,3.17
2018-08-10T06:00:45.804Z,4.20
2018-08-10T06:03:13.683Z,7.40
2018-08-10T06:05:41.646Z,2.63
2018-08-10T06:08:09.559Z,2.30
2018-08-10T06:10:37.389Z,2.80
2018-08-10T06:13:05.589Z,2.27
2018-08-10T06:15:33.565Z,2.20
2018-08-10T06:18:01.372Z,3.55
2018-08-10T06:20:29.295Z,2.63
2018-08-10T06:22:57.265Z,2.00
2018-08-10T06:25:25.205Z,2.90
2018-08-10T06:27:53.205Z,1.87
2018-08-10T06:30:21.148Z,2.07
2018-08-10T06:32:49.022Z,1.63
2018-08-10T06:35:16.879Z,1.60
2018-08-10T06:37:44.878Z,2.00
2018-08-10T06:40:12.764Z,2.17
2018-08-10T06:42:41.130Z,2.00
2018-08-10T06:45:09.093Z,1.60
2018-08-10T06:47:37.063Z,1.90
2018-08-10T06:50:05.133Z,2.30
2018-08-10T06:52:32.986Z,2.43
2018-08-10T06:55:00.832Z,2.10
2018-08-10T06:57:28.746Z,2.60
2018-08-10T06:59:56.564Z,2.13
2018-08-10T07:02:24.737Z,2.40
2018-08-10T07:04:52.864Z,2.70
2018-08-10T07:07:20.822Z,2.60
2018-08-10T07:09:48.730Z,3.10
2018-08-10T07:12:16.648Z,2.03
2018-08-10T07:14:44.545Z,2.13
2018-08-10T07:17:12.434Z,4.13
2018-08-10T07:19:40.348Z,2.10
2018-08-10T07:22:08.237Z,2.20
2018-08-10T07:24:36.100Z,2.00
2018-08-10T07:27:04.056Z,2.50
2018-08-10T07:29:31.913Z,2.57
2018-08-10T07:31:59.979Z,1.80
2018-08-10T07:34:27.805Z,4.47
2018-08-10T07:36:55.710Z,2.40
2018-08-10T07:39:23.638Z,5.20
2018-08-10T07:41:51.495Z,2.40
2018-08-10T07:44:19.407Z,2.07
2018-08-10T07:46:47.219Z,4.27
2018-08-10T07:49:15.124Z,1.70
2018-08-10T07:51:43.048Z,1.80
2018-08-10T07:54:10.913Z,1.60
2018-08-10T07:56:38.929Z,5.03
2018-08-10T07:59:06.837Z,1.70
2018-08-10T08:01:34.724Z,1.70
2018-08-10T08:04:02.618Z,2.55
2018-08-10T08:06:30.534Z,1.70
2018-08-10T08:08:58.426Z,2.40
2018-08-10T08:11:26.333Z,4.27
2018-08-10T08:13:54.225Z,1.50
2018-08-10T08:16:22.124Z,2.20
2018-08-10T08:18:49.972Z,4.23
2018-08-10T08:21:17.843Z,1.60
2018-08-10T08:23:45.862Z,3.43
2018-08-10T08:26:13.701Z,2.00
2018-08-10T08:28:41.638Z,1.67
2018-08-10T08:31:09.635Z,2.00
2018-08-10T08:33:43.228Z,2.13
2018-08-10T08:36:11.117Z,2.77
2018-08-10T08:38:44.668Z,2.50
2018-08-10T08:41:12.541Z,2.53
2018-08-10T08:45:50.373Z,2.50
2018-08-10T08:48:18.502Z,2.70
2018-08-10T08:50:47.879Z,2.50
2018-08-10T08:53:15.895Z,2.37
2018-08-10T08:55:45.304Z,2.60
2018-08-10T08:58:13.260Z,2.40
2018-08-10T09:00:41.214Z,2.87
2018-08-10T09:03:14.883Z,2.53
2018-08-10T09:05:42.786Z,2.60
2018-08-10T09:08:10.670Z,3.83
2018-08-10T09:10:38.631Z,2.63
2018-08-10T09:13:06.505Z,2.43
2018-08-10T09:15:34.489Z,2.70
2018-08-10T09:18:02.443Z,2.70
2018-08-10T09:20:30.260Z,2.80
2018-08-10T09:22:58.212Z,2.30
2018-08-10T09:25:26.077Z,2.40
2018-08-10T09:27:53.937Z,2.43
2018-08-10T09:30:21.871Z,2.70
2018-08-10T09:32:49.738Z,3.53
2018-08-10T09:35:17.691Z,2.63
2018-08-10T09:37:45.553Z,2.30
2018-08-10T09:40:15.750Z,4.40
2018-08-10T09:42:43.856Z,2.93
2018-08-10T09:45:12.602Z,2.40
2018-08-10T09:47:41.355Z,2.97
2018-08-10T09:50:09.669Z,2.80
2018-08-10T09:52:37.554Z,2.90
2018-08-10T09:55:27.942Z,4.23
2018-08-10T09:57:57.173Z,3.23
2018-08-10T10:00:30.626Z,4.87
2018-08-10T10:03:03.989Z,2.83
2018-08-10T10:05:31.893Z,5.30
2018-08-10T10:07:59.806Z,2.87
2018-08-10T10:10:27.664Z,3.13
2018-08-10T10:12:56.164Z,3.83
2018-08-10T10:15:24.081Z,3.43
2018-08-10T10:17:52.005Z,2.73
2018-08-10T10:20:19.935Z,2.83
2018-08-10T10:22:48.325Z,2.70
2018-08-10T10:25:16.165Z,2.50
2018-08-10T10:27:44.167Z,2.90
2018-08-10T10:30:12.024Z,2.80
2018-08-10T10:32:39.999Z,3.63
2018-08-10T10:35:07.869Z,3.00
2018-08-10T10:37:35.801Z,3.13
2018-08-10T10:40:03.661Z,2.73
2018-08-10T10:42:31.543Z,2.67
2018-08-10T10:44:59.393Z,2.63
2018-08-10T10:47:27.309Z,2.70
2018-08-10T10:49:55.212Z,3.80
2018-08-10T10:52:23.108Z,5.17
2018-08-10T10:54:50.945Z,4.00
2018-08-10T10:57:18.869Z,4.77
2018-08-10T10:59:46.902Z,3.13
2018-08-10T11:02:14.797Z,3.00
2018-08-10T11:04:42.785Z,4.37
2018-08-10T11:07:10.801Z,3.77
2018-08-10T11:09:39.586Z,5.65
2018-08-10T11:12:07.607Z,3.00
2018-08-10T11:14:35.499Z,4.63
2018-08-10T11:17:03.345Z,3.20
2018-08-10T11:19:31.254Z,4.53
2018-08-10T11:21:59.069Z,6.27
2018-08-10T11:24:26.934Z,4.53
2018-08-10T11:26:54.865Z,3.70
2018-08-10T11:29:22.762Z,3.97
2018-08-10T11:31:50.707Z,6.30
2018-08-10T11:34:18.566Z,5.33
2018-08-10T11:36:46.417Z,3.70
2018-08-10T11:39:14.253Z,3.30
2018-08-10T11:41:42.392Z,4.05
2018-08-10T11:44:10.581Z,3.40
2018-08-10T11:46:38.547Z,3.80
2018-08-10T11:49:06.390Z,4.05
2018-08-10T11:51:34.209Z,3.63
2018-08-10T11:54:02.149Z,3.70
2018-08-10T11:56:30.015Z,3.87
2018-08-10T11:58:57.936Z,4.63
2018-08-10T12:01:25.800Z,3.77
2018-08-10T12:03:53.810Z,3.77
2018-08-10T12:06:21.771Z,5.53
2018-08-10T12:08:49.623Z,3.33
2018-08-10T12:11:17.557Z,4.33
2018-08-10T12:13:45.384Z,3.60
2018-08-10T12:16:13.289Z,3.90
2018-08-10T12:18:41.128Z,4.50
2018-08-10T12:21:09.006Z,4.00
2018-08-10T12:23:37.207Z,3.20
2018-08-10T12:26:05.066Z,3.80
2018-08-10T12:28:33.010Z,3.37
2018-08-10T12:31:01.180Z,3.97
2018-08-10T12:33:29.144Z,3.60
2018-08-10T12:35:57.085Z,3.40
2018-08-10T12:38:25.023Z,5.57
2018-08-10T12:40:52.928Z,2.83
2018-08-10T12:43:21.010Z,9.50
2018-08-10T12:45:48.898Z,3.27
2018-08-10T12:48:16.809Z,2.83
2018-08-10T12:50:44.705Z,5.00
2018-08-10T12:53:13.057Z,3.40
2018-08-10T12:55:40.965Z,3.17
2018-08-10T12:58:08.859Z,2.50
2018-08-10T13:00:36.825Z,3.10
2018-08-10T13:03:04.858Z,2.50
2018-08-10T13:05:32.629Z,2.70
2018-08-10T13:08:00.519Z,2.70
2018-08-10T13:10:28.400Z,3.25
2018-08-10T13:12:56.311Z,2.33
2018-08-10T13:15:24.207Z,2.47
2018-08-10T13:17:52.025Z,4.00
2018-08-10T13:20:20.056Z,2.10
2018-08-10T13:22:47.954Z,2.65
2018-08-10T13:25:15.806Z,4.60
2018-08-10T13:27:43.640Z,2.27
2018-08-10T13:30:12.430Z,4.20
2018-08-10T13:32:40.397Z,1.93
2018-08-10T13:35:08.302Z,2.43
2018-08-10T13:37:36.860Z,2.00
2018-08-10T13:40:05.025Z,2.60
2018-08-10T13:42:33.140Z,1.63
2018-08-10T13:45:01.174Z,2.40
2018-08-10T13:47:29.015Z,1.60
2018-08-10T13:49:56.949Z,4.10
2018-08-10T13:52:24.909Z,1.90
2018-08-10T13:54:52.855Z,2.40
2018-08-10T13:57:20.708Z,2.30
2018-08-10T13:59:48.582Z,1.87
2018-08-10T14:02:16.460Z,2.67
2018-08-10T14:04:44.428Z,2.07
2018-08-10T14:07:12.241Z,2.00
2018-08-10T14:09:40.105Z,4.30
2018-08-10T14:12:08.007Z,1.83
2018-08-10T14:14:36.013Z,2.80
2018-08-10T14:17:03.882Z,2.10
2018-08-10T14:19:31.784Z,2.60
2018-08-10T14:21:59.694Z,2.97
2018-08-10T14:24:27.550Z,2.27
2018-08-10T14:26:55.633Z,1.87
2018-08-10T14:29:23.532Z,2.50
2018-08-10T14:31:51.453Z,2.40
2018-08-10T14:34:19.449Z,1.83
2018-08-10T14:36:47.326Z,1.73
2018-08-10T14:39:15.186Z,3.37
2018-08-10T14:41:43.079Z,1.50
2018-08-10T14:44:10.949Z,1.97
2018-08-10T14:46:38.856Z,2.70
2018-08-10T14:49:07.218Z,1.90
2018-08-10T14:51:35.104Z,3.80
2018-08-10T14:54:03.048Z,2.63
2018-08-10T14:56:30.916Z,1.70
2018-08-10T14:58:59.448Z,1.75
2018-08-10T15:03:54.579Z,2.50
2018-08-10T15:06:22.451Z,2.00
2018-08-10T15:08:50.386Z,1.80
2018-08-10T15:11:18.464Z,2.35
2018-08-10T15:13:46.295Z,2.60
2018-08-10T15:16:14.201Z,2.27
2018-08-10T15:18:42.074Z,2.30
2018-08-10T15:21:09.945Z,2.90
2018-08-10T15:23:37.769Z,1.77
2018-08-10T15:26:05.752Z,3.57
2018-08-10T15:28:33.614Z,6.53
2018-08-10T15:32:04.683Z,3.90
2018-08-10T15:34:32.629Z,4.00
2018-08-10T15:37:00.618Z,4.70
2018-08-10T15:39:28.475Z,3.10
2018-08-10T15:41:56.444Z,1.87
2018-08-10T15:44:24.354Z,3.00
2018-08-10T15:46:52.289Z,1.70
2018-08-10T15:49:20.861Z,2.17
2018-08-10T15:51:48.790Z,5.07
2018-08-10T15:54:16.666Z,2.10
2018-08-10T15:56:44.587Z,4.20
2018-08-10T15:59:12.429Z,4.00
2018-08-10T16:01:40.362Z,2.90
2018-08-10T16:04:08.269Z,2.37
2018-08-10T16:06:36.168Z,3.47
2018-08-10T16:09:06.225Z,4.00
2018-08-10T16:11:34.065Z,1.83
2018-08-10T16:14:02.075Z,2.83
2018-08-10T16:16:29.924Z,4.20
2018-08-10T16:18:57.789Z,1.70
2018-08-10T16:21:25.635Z,3.10
2018-08-10T16:23:53.484Z,3.80
2018-08-10T16:26:21.361Z,2.97
2018-08-10T16:28:49.215Z,3.00
2018-08-10T16:31:17.065Z,1.83
2018-08-10T16:33:45.015Z,1.80
2018-08-10T16:36:12.887Z,2.10
2018-08-10T16:38:40.791Z,1.77
2018-08-10T16:41:08.970Z,3.17
2018-08-10T16:43:36.803Z,1.77
2018-08-10T16:46:04.693Z,1.70
2018-08-10T16:48:32.641Z,2.77
2018-08-10T16:51:00.527Z,2.13
2018-08-10T16:53:28.466Z,3.13
2018-08-10T16:55:56.379Z,3.13
2018-08-10T16:58:24.324Z,2.53
2018-08-10T17:00:52.236Z,2.80
2018-08-10T17:03:20.194Z,2.57
2018-08-10T17:05:48.178Z,2.20
2018-08-10T17:08:16.097Z,2.50
2018-08-10T17:10:44.023Z,3.57
2018-08-10T17:13:11.845Z,2.50
2018-08-10T17:15:39.805Z,2.87
2018-08-10T17:18:07.705Z,2.90
2018-08-10T17:20:35.572Z,3.10
2018-08-10T17:23:03.597Z,2.17
2018-08-10T17:25:31.429Z,2.30
2018-08-10T17:27:59.358Z,2.20
2018-08-10T17:30:27.250Z,3.73
2018-08-10T17:32:55.124Z,2.77
2018-08-10T17:35:23.018Z,2.93
2018-08-10T17:37:50.938Z,3.27
2018-08-10T17:40:18.851Z,3.00
2018-08-10T17:42:46.689Z,3.43
2018-08-10T17:45:15.865Z,3.37
2018-08-10T17:47:43.703Z,4.23
2018-08-10T17:50:13.229Z,3.47
2018-08-10T17:52:44.264Z,1.80
2018-08-10T17:55:12.778Z,4.30
2018-08-10T17:57:40.660Z,2.80
2018-08-10T18:00:09.815Z,3.23
2018-08-10T18:02:37.734Z,2.10
2018-08-10T18:05:07.048Z,2.33
2018-08-10T18:07:34.921Z,3.57
2018-08-10T18:10:02.872Z,2.17
2018-08-10T18:12:30.680Z,7.07
2018-08-10T18:14:58.528Z,4.20
2018-08-10T18:17:26.385Z,4.23
2018-08-10T18:19:54.232Z,4.60
2018-08-10T18:22:22.119Z,2.67
2018-08-10T18:24:49.956Z,2.60
2018-08-10T18:27:17.844Z,3.00
2018-08-10T18:29:45.685Z,5.53
2018-08-10T18:32:13.568Z,3.53
2018-08-10T18:34:41.473Z,5.70
2018-08-10T18:37:09.280Z,4.20
2018-08-10T18:39:38.059Z,3.67
2018-08-10T18:42:05.967Z,2.77
2018-08-10T18:44:33.806Z,4.83
2018-08-10T18:47:01.732Z,5.00
2018-08-10T18:49:29.597Z,3.43
2018-08-10T18:51:57.453Z,3.70
2018-08-10T18:54:25.315Z,4.07
2018-08-10T18:56:53.281Z,3.60
2018-08-10T18:59:21.138Z,5.60
2018-08-10T19:01:48.996Z,3.40
2018-08-10T19:04:16.870Z,3.73
2018-08-10T19:06:44.753Z,5.00
2018-08-10T19:09:12.653Z,3.57
2018-08-10T19:11:40.521Z,4.27
2018-08-10T19:14:08.369Z,4.30
2018-08-10T19:19:32.785Z,4.00
2018-08-10T19:22:00.841Z,4.20
2018-08-10T19:24:28.947Z,4.47
2018-08-10T19:26:56.962Z,4.17
2018-08-10T19:29:25.013Z,4.70
2018-08-10T19:31:52.926Z,8.10
2018-08-10T19:34:21.962Z,4.57
2018-08-10T19:36:50.148Z,5.07
2018-08-10T19:39:18.075Z,4.40
2018-08-10T19:41:46.111Z,5.60
2018-08-10T19:44:14.142Z,6.63
2018-08-10T19:46:42.145Z,5.10
2018-08-10T19:49:10.318Z,8.00
2018-08-10T19:51:38.193Z,6.10
2018-08-10T19:54:06.228Z,6.13
2018-08-10T19:56:34.218Z,7.70
2018-08-10T19:59:02.434Z,4.83
2018-08-10T20:01:30.653Z,5.93
2018-08-10T20:03:58.828Z,4.33
2018-08-10T20:06:26.879Z,4.23
2018-08-10T20:08:54.900Z,5.90
2018-08-10T20:11:22.881Z,4.60
2018-08-10T20:13:50.907Z,3.83
2018-08-10T20:16:18.891Z,4.00
2018-08-10T20:18:46.853Z,6.97
2018-08-10T20:21:14.784Z,4.60
2018-08-10T20:23:42.834Z,6.10
2018-08-10T20:26:10.710Z,5.20
2018-08-10T20:28:38.641Z,4.03
2018-08-10T20:31:06.508Z,4.73
2018-08-10T20:33:34.466Z,5.03
2018-08-10T20:36:02.411Z,4.40
2018-08-10T20:38:30.504Z,4.17
2018-08-10T20:40:58.457Z,4.63
2018-08-10T20:43:26.389Z,6.57
2018-08-10T20:45:55.896Z,4.87
2018-08-10T20:48:24.165Z,6.50
2018-08-10T20:50:52.220Z,4.70
2018-08-10T20:53:20.557Z,5.73
2018-08-10T20:55:48.648Z,4.43
2018-08-10T20:58:16.533Z,4.83
2018-08-10T21:00:44.489Z,6.53
2018-08-10T21:03:12.484Z,5.73
2018-08-10T21:05:40.463Z,5.50
2018-08-10T21:08:08.344Z,4.93
2018-08-10T21:10:36.472Z,6.77
2018-08-10T21:13:04.647Z,8.77
2018-08-10T21:15:32.699Z,8.00
2018-08-10T21:18:00.676Z,7.60
2018-08-10T21:20:28.609Z,6.30
2018-08-10T21:22:56.714Z,10.10
2018-08-10T21:25:24.688Z,5.23
2018-08-10T21:27:52.597Z,5.97
2018-08-10T21:30:20.631Z,8.90
2018-08-10T21:32:49.320Z,9.40
2018-08-10T21:35:17.400Z,7.03
2018-08-10T21:37:45.340Z,8.00
2018-08-10T21:40:13.314Z,7.13
2018-08-10T21:42:42.014Z,10.37
2018-08-10T21:45:10.040Z,12.37
2018-08-10T21:47:38.566Z,7.27
2018-08-10T21:50:07.911Z,6.70
2018-08-10T21:52:35.849Z,8.17
2018-08-10T21:55:03.757Z,7.90
2018-08-10T21:57:31.712Z,7.30
2018-08-10T21:59:59.705Z,8.20
2018-08-10T22:02:27.701Z,9.80
2018-08-10T22:04:56.197Z,11.27
2018-08-10T22:07:24.283Z,10.73
2018-08-10T22:09:52.235Z,13.47
2018-08-10T22:12:20.615Z,7.60
2018-08-10T22:14:54.106Z,8.47
2018-08-10T22:17:27.767Z,10.00
2018-08-10T22:19:59.468Z,5.60
2018-08-10T22:22:27.976Z,6.10
2018-08-10T22:24:55.955Z,8.37
2018-08-10T22:27:24.100Z,5.17
2018-08-10T22:29:52.080Z,6.00
2018-08-10T22:32:20.051Z,4.63
2018-08-10T22:34:48.033Z,4.63
2018-08-10T22:37:16.070Z,4.30
2018-08-10T22:39:44.626Z,6.20
2018-08-10T22:42:12.558Z,4.83
2018-08-10T22:44:40.494Z,10.20
2018-08-10T22:47:08.469Z,7.20
2018-08-10T22:49:36.457Z,6.23
2018-08-10T22:52:04.501Z,6.10
2018-08-10T22:54:32.547Z,5.10
2018-08-10T22:57:00.629Z,5.10
2018-08-10T22:59:28.581Z,5.60
2018-08-10T23:01:56.603Z,6.67
2018-08-10T23:04:24.595Z,7.60
2018-08-10T23:06:53.065Z,6.93
2018-08-10T23:09:21.046Z,4.97
2018-08-10T23:11:48.996Z,5.37
2018-08-10T23:14:17.073Z,5.63
2018-08-10T23:16:45.185Z,5.50
2018-08-10T23:19:13.173Z,5.47
2018-08-10T23:21:41.412Z,9.60
2018-08-10T23:24:09.404Z,4.73
2018-08-10T23:26:37.365Z,6.20
2018-08-10T23:29:05.383Z,4.30
2018-08-10T23:31:33.334Z,3.87
2018-08-10T23:34:01.302Z,4.50
2018-08-10T23:36:29.302Z,4.63
2018-08-10T23:38:57.282Z,4.27
2018-08-10T23:41:25.196Z,4.60
2018-08-10T23:43:53.193Z,5.83
2018-08-10T23:46:23.690Z,5.57
2018-08-10T23:48:51.641Z,6.30
2018-08-10T23:51:19.529Z,4.53
2018-08-10T23:53:47.479Z,3.60
2018-08-10T23:56:15.429Z,4.63
2018-08-10T23:58:43.554Z,4.93
